Agawam, Massachusetts
Current Conditions -  °F | °C
As of 4:53 AM on Thursday 27 Nov 2014 (Local Time) from KBAF Reporting Station
Scattered Clouds Scattered Clouds  
Wind Chill: 28°   Ceiling: Unl
Heat Index: 33°   Visibility: 10mi
Dew Point: 28°   Wind: 6mph
Humidity: 82%   Direction: 330°NNW
Pressure: 29.86"   Gusts: NA
Location:  42.07°N, 72.61°W
Report Text: KBAF 270953Z 33005KT 10SM SCT080 01/M02 A2986 RMK AO2 SLP116 T00061022
Loading
Personal Weather Stations






























Interactive Weather Map New forecast layout! Learn more

10-Day Weather Forecast

Advertisements
Track Severe Weather on mobile